createdAt,value
2022-12-04T00:00:21.937Z,24.07
2022-12-04T00:02:52.112Z,25.37
2022-12-04T00:05:21.004Z,25.00
2022-12-04T00:07:50.030Z,23.83
2022-12-04T00:10:18.538Z,24.07
2022-12-04T00:12:48.066Z,22.57
2022-12-04T00:15:25.215Z,25.37
2022-12-04T00:17:56.353Z,24.57
2022-12-04T00:20:24.922Z,26.63
2022-12-04T00:22:54.413Z,22.37
2022-12-04T00:25:22.806Z,22.87
2022-12-04T00:27:51.690Z,27.70
2022-12-04T00:30:20.118Z,25.07
2022-12-04T00:32:49.098Z,23.07
2022-12-04T00:35:18.978Z,23.37
2022-12-04T00:37:47.588Z,26.43
2022-12-04T00:40:16.512Z,25.07
2022-12-04T00:42:45.741Z,24.93
2022-12-04T00:45:14.801Z,24.30
2022-12-04T00:47:43.784Z,25.43
2022-12-04T00:50:13.606Z,22.43
2022-12-04T00:52:43.633Z,24.37
2022-12-04T00:55:12.795Z,23.63
2022-12-04T00:57:42.274Z,24.63
2022-12-04T01:00:11.226Z,24.97
2022-12-04T01:02:40.299Z,23.80
2022-12-04T01:05:10.030Z,30.87
2022-12-04T01:07:38.618Z,24.17
2022-12-04T01:10:14.723Z,23.90
2022-12-04T01:12:43.217Z,23.93
2022-12-04T01:15:12.810Z,25.90
2022-12-04T01:17:41.904Z,23.23
2022-12-04T01:20:13.369Z,25.23
2022-12-04T01:22:41.813Z,23.47
2022-12-04T01:25:12.461Z,23.93
2022-12-04T01:27:41.116Z,25.43
2022-12-04T01:30:11.113Z,24.03
2022-12-04T01:32:39.974Z,27.00
2022-12-04T01:35:09.192Z,25.77
2022-12-04T01:37:38.078Z,23.67
2022-12-04T01:40:07.998Z,24.37
2022-12-04T01:42:38.998Z,25.10
2022-12-04T01:45:41.743Z,29.57
2022-12-04T01:48:19.850Z,23.97
2022-12-04T01:50:50.432Z,27.40
2022-12-04T01:53:20.445Z,25.00
2022-12-04T01:55:49.604Z,24.30
2022-12-04T01:58:27.351Z,24.37
2022-12-04T02:01:03.674Z,26.50
2022-12-04T02:03:36.060Z,24.47
2022-12-04T02:06:05.577Z,26.07
2022-12-04T02:08:35.723Z,24.70
2022-12-04T02:11:14.925Z,26.47
2022-12-04T02:13:53.706Z,25.23
2022-12-04T02:16:30.353Z,23.67
2022-12-04T02:19:07.530Z,24.47
2022-12-04T02:21:39.620Z,25.40
2022-12-04T02:24:26.606Z,24.93
2022-12-04T02:27:00.943Z,25.60
2022-12-04T02:29:38.738Z,27.23
2022-12-04T02:32:16.209Z,30.20
2022-12-04T02:34:50.509Z,30.73
2022-12-04T02:37:25.698Z,29.40
2022-12-04T02:40:01.328Z,32.03
2022-12-04T02:42:38.055Z,26.70
2022-12-04T02:45:11.294Z,30.43
2022-12-04T02:47:42.339Z,24.07
2022-12-04T02:50:14.493Z,26.43
2022-12-04T02:52:48.767Z,26.60
2022-12-04T02:55:23.029Z,24.57
2022-12-04T02:57:57.044Z,28.63
2022-12-04T03:00:29.568Z,29.73
2022-12-04T03:03:01.862Z,25.27
2022-12-04T03:05:39.625Z,31.60
2022-12-04T03:08:13.255Z,24.50
2022-12-04T03:10:47.645Z,29.63
2022-12-04T03:13:20.366Z,27.67
2022-12-04T03:15:55.115Z,29.67
2022-12-04T03:18:28.144Z,26.17
2022-12-04T03:21:03.973Z,25.90
2022-12-04T03:23:36.710Z,26.00
2022-12-04T03:26:11.494Z,24.10
2022-12-04T03:28:52.849Z,25.53
2022-12-04T03:31:29.219Z,29.97
2022-12-04T03:34:02.789Z,25.93
2022-12-04T03:36:37.115Z,25.17
2022-12-04T03:39:14.403Z,30.23
2022-12-04T03:41:55.694Z,26.57
2022-12-04T03:44:29.278Z,27.73
2022-12-04T03:47:05.684Z,23.70
2022-12-04T03:49:43.916Z,23.00
2022-12-04T03:52:18.573Z,29.33
2022-12-04T03:54:52.495Z,23.93
2022-12-04T03:57:25.959Z,26.67
2022-12-04T04:00:02.685Z,27.90
2022-12-04T04:02:37.554Z,27.90
2022-12-04T04:05:11.981Z,23.87
2022-12-04T04:07:45.339Z,28.10
2022-12-04T04:10:17.309Z,29.83
2022-12-04T04:13:12.594Z,24.47
2022-12-04T04:16:14.528Z,21.73
2022-12-04T04:19:03.030Z,22.87
2022-12-04T04:21:54.804Z,23.63
2022-12-04T04:24:31.944Z,25.37
2022-12-04T04:27:00.867Z,30.20
2022-12-04T04:29:29.703Z,23.77
2022-12-04T04:32:04.775Z,26.13
2022-12-04T04:34:46.285Z,27.17
2022-12-04T04:37:23.514Z,23.13
2022-12-04T04:39:58.320Z,21.77
2022-12-04T04:42:31.573Z,23.03
2022-12-04T04:45:05.735Z,23.63
2022-12-04T04:47:40.610Z,27.77
2022-12-04T04:50:14.011Z,29.03
2022-12-04T04:52:45.957Z,23.50
2022-12-04T04:55:15.682Z,24.17
2022-12-04T04:57:45.510Z,23.40
2022-12-04T05:00:17.390Z,24.50
2022-12-04T05:02:48.567Z,26.30
2022-12-04T05:05:19.413Z,23.53
2022-12-04T05:07:47.867Z,25.47
2022-12-04T05:10:16.906Z,22.97
2022-12-04T05:12:46.454Z,25.93
2022-12-04T05:15:15.544Z,26.23
2022-12-04T05:17:44.249Z,22.50
2022-12-04T05:20:13.523Z,23.73
2022-12-04T05:22:43.346Z,25.00
2022-12-04T05:25:12.556Z,25.80
2022-12-04T05:27:41.167Z,25.10
2022-12-04T05:30:12.236Z,23.10
2022-12-04T05:32:40.774Z,25.10
2022-12-04T05:35:11.621Z,24.70
2022-12-04T05:37:41.930Z,23.20
2022-12-04T05:40:12.579Z,24.57
2022-12-04T05:42:41.031Z,24.47
2022-12-04T05:45:10.183Z,23.63
2022-12-04T05:47:40.340Z,25.77
2022-12-04T05:50:10.034Z,31.63
2022-12-04T05:52:38.931Z,23.80
2022-12-04T05:55:08.166Z,23.37
2022-12-04T05:57:38.649Z,24.47
2022-12-04T06:00:08.940Z,24.07
2022-12-04T06:02:40.205Z,22.80
2022-12-04T06:05:09.288Z,23.73
2022-12-04T06:07:37.765Z,24.37
2022-12-04T06:10:08.434Z,24.60
2022-12-04T06:12:38.226Z,23.40
2022-12-04T06:15:08.355Z,23.33
2022-12-04T06:17:36.780Z,22.97
2022-12-04T06:20:11.412Z,24.03
2022-12-04T06:22:40.955Z,24.57
2022-12-04T06:25:10.172Z,24.67
2022-12-04T06:27:40.587Z,22.37
2022-12-04T06:30:10.571Z,23.13
2022-12-04T06:32:38.947Z,26.77
2022-12-04T06:35:08.661Z,27.37
2022-12-04T06:37:37.058Z,21.67
2022-12-04T06:40:07.793Z,22.60
2022-12-04T06:42:36.137Z,30.40
2022-12-04T06:45:08.194Z,26.73
2022-12-04T06:47:37.079Z,30.53
2022-12-04T06:50:06.354Z,27.97
2022-12-04T06:52:35.037Z,23.87
2022-12-04T06:55:04.248Z,22.70
2022-12-04T06:57:32.547Z,23.50
2022-12-04T07:00:01.283Z,27.03
2022-12-04T07:02:31.012Z,23.17
2022-12-04T07:04:59.764Z,21.53
2022-12-04T07:07:28.117Z,19.50
2022-12-04T07:10:00.187Z,19.97
2022-12-04T07:12:28.717Z,18.90
2022-12-04T07:14:57.064Z,23.67
2022-12-04T07:17:25.927Z,24.43
2022-12-04T07:19:56.092Z,22.07
2022-12-04T07:22:24.899Z,31.47
2022-12-04T07:24:53.427Z,23.87
2022-12-04T07:27:21.989Z,27.97
2022-12-04T07:29:52.731Z,22.20
2022-12-04T07:32:21.382Z,23.43
2022-12-04T07:34:49.755Z,27.47
2022-12-04T07:37:19.461Z,22.27
2022-12-04T07:39:48.009Z,22.43
2022-12-04T07:42:22.526Z,22.57
2022-12-04T07:44:52.418Z,28.33
2022-12-04T07:47:21.403Z,24.43
2022-12-04T07:49:49.738Z,37.43
2022-12-04T07:52:19.970Z,22.97
2022-12-04T07:54:48.862Z,25.90
2022-12-04T07:57:17.652Z,24.93
2022-12-04T07:59:46.487Z,21.83
2022-12-04T08:02:14.978Z,23.80
2022-12-04T08:04:44.369Z,25.30
2022-12-04T08:07:12.818Z,24.07
2022-12-04T08:09:43.066Z,23.87
2022-12-04T08:12:11.597Z,23.90
2022-12-04T08:14:40.179Z,23.90
2022-12-04T08:17:08.619Z,19.47
2022-12-04T08:19:37.269Z,24.53
2022-12-04T08:22:05.606Z,22.57
2022-12-04T08:24:34.839Z,22.13
2022-12-04T08:27:04.553Z,20.87
2022-12-04T08:29:33.220Z,22.80
2022-12-04T08:32:02.165Z,22.10
2022-12-04T08:34:30.602Z,25.57
2022-12-04T08:36:59.413Z,25.43
2022-12-04T08:39:27.834Z,20.37
2022-12-04T08:41:57.331Z,18.07
2022-12-04T08:44:27.930Z,20.60
2022-12-04T08:46:56.278Z,22.70
2022-12-04T08:49:25.152Z,23.63
2022-12-04T08:51:53.543Z,21.57
2022-12-04T08:54:22.975Z,20.47
2022-12-04T08:56:51.803Z,18.70
2022-12-04T08:59:20.238Z,18.43
2022-12-04T09:01:52.791Z,21.33
2022-12-04T09:04:21.898Z,18.37
2022-12-04T09:06:50.333Z,17.43
2022-12-04T09:09:19.085Z,17.50
2022-12-04T09:11:47.541Z,20.57
2022-12-04T09:14:16.357Z,19.27
2022-12-04T09:16:44.962Z,19.70
2022-12-04T09:19:15.173Z,19.97
2022-12-04T09:21:43.828Z,18.80
2022-12-04T09:24:12.645Z,19.43
2022-12-04T09:26:41.031Z,24.87
2022-12-04T09:29:11.616Z,20.10
2022-12-04T09:31:40.620Z,19.77
2022-12-04T09:34:09.012Z,16.20
2022-12-04T09:36:39.974Z,17.57
2022-12-04T09:39:08.434Z,20.20
2022-12-04T09:42:05.273Z,20.53
2022-12-04T09:44:37.065Z,20.23
2022-12-04T09:47:11.484Z,18.23
2022-12-04T09:49:43.045Z,19.53
2022-12-04T09:52:25.471Z,21.57
2022-12-04T09:54:54.923Z,20.17
2022-12-04T09:57:30.153Z,17.90
2022-12-04T09:59:58.964Z,17.77
2022-12-04T10:02:37.855Z,18.70
2022-12-04T10:05:08.446Z,20.17
2022-12-04T10:07:49.303Z,20.20
2022-12-04T10:10:24.898Z,18.27
2022-12-04T10:13:03.298Z,19.57
2022-12-04T10:15:40.118Z,16.30
2022-12-04T10:18:25.385Z,17.73
2022-12-04T10:21:07.558Z,19.47
2022-12-04T10:23:51.226Z,20.33
2022-12-04T10:26:25.009Z,19.90
2022-12-04T10:28:59.591Z,19.33
2022-12-04T10:31:29.572Z,18.27
2022-12-04T10:34:03.760Z,17.93
2022-12-04T10:36:34.485Z,17.07
2022-12-04T10:39:11.726Z,19.43
2022-12-04T10:41:47.722Z,16.50
2022-12-04T10:44:18.812Z,18.30
2022-12-04T10:46:47.445Z,18.47
2022-12-04T10:49:21.507Z,15.80
2022-12-04T10:51:50.933Z,16.10
2022-12-04T10:54:26.139Z,17.17
2022-12-04T10:56:56.869Z,18.07
2022-12-04T10:59:25.492Z,16.83
2022-12-04T11:02:06.288Z,17.30
2022-12-04T11:04:36.291Z,17.00
2022-12-04T11:07:09.033Z,16.60
2022-12-04T11:09:38.896Z,16.57
2022-12-04T11:12:11.040Z,15.47
2022-12-04T11:14:44.052Z,15.13
2022-12-04T11:17:19.115Z,15.90
2022-12-04T11:19:47.706Z,15.70
2022-12-04T11:22:18.791Z,14.97
2022-12-04T11:24:55.848Z,15.13
2022-12-04T11:27:27.610Z,13.13
2022-12-04T11:29:57.440Z,14.53
2022-12-04T11:32:29.365Z,13.20
2022-12-04T11:35:02.284Z,13.73
2022-12-04T11:37:36.474Z,13.90
2022-12-04T11:40:18.141Z,14.47
2022-12-04T11:42:59.071Z,13.10
2022-12-04T11:45:28.225Z,12.80
2022-12-04T11:47:58.613Z,12.47
2022-12-04T11:50:35.151Z,15.07
2022-12-04T11:53:11.833Z,13.20
2022-12-04T11:55:53.883Z,13.43
2022-12-04T11:58:42.905Z,14.52
2022-12-04T12:01:27.266Z,13.90
2022-12-04T12:04:25.124Z,16.43
2022-12-04T12:07:02.902Z,16.67
2022-12-04T12:09:42.667Z,15.90
2022-12-04T12:12:18.452Z,15.43
2022-12-04T12:15:06.228Z,15.20
2022-12-04T12:17:41.788Z,12.90
2022-12-04T12:20:18.912Z,13.10
2022-12-04T12:23:03.189Z,12.10
2022-12-04T12:25:39.207Z,12.40
2022-12-04T12:28:23.714Z,12.70
2022-12-04T12:31:07.629Z,11.77
2022-12-04T12:33:41.210Z,12.10
2022-12-04T12:36:12.068Z,12.80
2022-12-04T12:38:45.018Z,13.10
2022-12-04T12:41:16.789Z,13.97
2022-12-04T12:43:51.042Z,12.07
2022-12-04T12:46:27.583Z,11.60
2022-12-04T12:49:04.140Z,11.73
2022-12-04T12:51:38.319Z,11.07
2022-12-04T12:54:16.644Z,10.33
2022-12-04T12:56:51.838Z,13.23
2022-12-04T12:59:26.554Z,11.47
2022-12-04T13:02:01.067Z,11.97
2022-12-04T13:04:38.748Z,11.33
2022-12-04T13:07:24.349Z,12.00
2022-12-04T13:10:01.990Z,12.00
2022-12-04T13:12:33.312Z,13.23
2022-12-04T13:15:03.241Z,13.30
2022-12-04T13:17:38.659Z,14.13
2022-12-04T13:20:16.137Z,15.17
2022-12-04T13:22:58.425Z,16.20
2022-12-04T13:25:36.577Z,14.30
2022-12-04T13:28:17.300Z,15.50
2022-12-04T13:30:57.828Z,16.97
2022-12-04T13:33:51.196Z,14.77
2022-12-04T13:36:32.979Z,17.00
2022-12-04T13:39:24.861Z,17.63
2022-12-04T13:41:59.845Z,21.87
2022-12-04T13:44:29.530Z,16.07
2022-12-04T13:47:02.459Z,16.13
2022-12-04T13:49:33.262Z,16.30
2022-12-04T13:52:03.599Z,15.83
2022-12-04T13:54:34.737Z,17.20
2022-12-04T13:57:28.245Z,16.10
2022-12-04T14:00:06.679Z,17.70
2022-12-04T14:02:52.203Z,16.20
2022-12-04T14:05:28.796Z,15.03
2022-12-04T14:08:07.478Z,14.30
2022-12-04T14:10:39.892Z,14.10
2022-12-04T14:13:19.889Z,14.57
2022-12-04T14:15:49.305Z,39.27
2022-12-04T14:18:28.458Z,21.53
2022-12-04T14:21:01.476Z,15.83
2022-12-04T14:23:37.472Z,24.20
2022-12-04T14:26:07.006Z,26.30
2022-12-04T14:28:42.874Z,18.03
2022-12-04T14:31:21.121Z,13.43
2022-12-04T14:33:53.905Z,13.93
2022-12-04T14:36:26.885Z,13.77
2022-12-04T14:39:06.779Z,15.87
2022-12-04T14:41:35.393Z,16.37
2022-12-04T14:44:04.432Z,20.63
2022-12-04T14:46:41.266Z,17.17
2022-12-04T14:49:26.977Z,13.70
2022-12-04T14:52:02.683Z,14.00
2022-12-04T14:54:39.451Z,14.10
2022-12-04T14:57:28.230Z,15.00
2022-12-04T14:59:57.560Z,14.50
2022-12-04T15:02:34.994Z,17.10
2022-12-04T15:05:09.702Z,14.60
2022-12-04T15:07:46.159Z,16.73
2022-12-04T15:10:38.482Z,18.23
2022-12-04T15:13:06.902Z,17.83
2022-12-04T15:15:36.529Z,16.20
2022-12-04T15:18:12.558Z,18.63
2022-12-04T15:20:53.622Z,16.77
2022-12-04T15:23:30.328Z,15.97
2022-12-04T15:26:03.269Z,20.50
2022-12-04T15:28:35.896Z,29.53
2022-12-04T15:31:07.621Z,27.30
2022-12-04T15:33:39.355Z,19.30
2022-12-04T15:36:14.713Z,17.33
2022-12-04T15:38:43.681Z,17.73
2022-12-04T15:41:32.131Z,15.60
2022-12-04T15:44:01.386Z,16.37
2022-12-04T15:46:34.817Z,15.97
2022-12-04T15:49:08.454Z,14.73
2022-12-04T15:51:38.731Z,14.17
2022-12-04T15:54:14.792Z,15.17
2022-12-04T15:56:43.603Z,15.97
2022-12-04T15:59:18.185Z,18.40
2022-12-04T16:01:47.840Z,15.57
2022-12-04T16:04:24.276Z,14.13
2022-12-04T16:06:55.056Z,14.47
2022-12-04T16:09:25.517Z,9.43
2022-12-04T16:12:05.444Z,18.77
2022-12-04T16:14:33.831Z,18.70
2022-12-04T16:17:06.279Z,21.73
2022-12-04T16:19:37.240Z,18.20
2022-12-04T16:22:13.873Z,16.63
2022-12-04T16:24:42.498Z,17.60
2022-12-04T16:27:13.613Z,18.80
2022-12-04T16:29:42.013Z,16.03
2022-12-04T16:32:12.587Z,15.87
2022-12-04T16:34:41.578Z,15.73
2022-12-04T16:37:14.811Z,16.50
2022-12-04T16:39:44.101Z,16.23
2022-12-04T16:42:17.216Z,15.07
2022-12-04T16:44:47.352Z,15.10
2022-12-04T16:47:16.555Z,15.03
2022-12-04T16:49:46.322Z,16.00
2022-12-04T16:52:17.488Z,15.60
2022-12-04T16:54:46.978Z,17.20
2022-12-04T16:57:15.611Z,17.63
2022-12-04T16:59:44.455Z,17.83
2022-12-04T17:02:17.712Z,18.77
2022-12-04T17:04:46.500Z,17.53
2022-12-04T17:07:16.630Z,18.60
2022-12-04T17:09:45.018Z,18.67
2022-12-04T17:12:13.387Z,19.13
2022-12-04T17:14:42.109Z,19.37
2022-12-04T17:17:10.518Z,19.73
2022-12-04T17:19:38.878Z,24.53
2022-12-04T17:22:08.225Z,25.37
2022-12-04T17:24:43.644Z,23.73
2022-12-04T17:27:16.568Z,21.23
2022-12-04T17:29:45.861Z,21.03
2022-12-04T17:32:14.873Z,22.97
2022-12-04T17:34:43.282Z,24.23
2022-12-04T17:37:12.199Z,22.30
2022-12-04T17:39:41.904Z,21.00
2022-12-04T17:42:10.922Z,21.90
2022-12-04T17:44:39.278Z,24.37
2022-12-04T17:47:07.781Z,25.57
2022-12-04T17:49:36.903Z,24.60
2022-12-04T17:52:05.731Z,25.77
2022-12-04T17:54:34.968Z,25.23
2022-12-04T17:57:04.803Z,24.73
2022-12-04T17:59:34.016Z,23.23
2022-12-04T18:02:02.359Z,27.17
2022-12-04T18:04:31.155Z,30.80
2022-12-04T18:06:59.501Z,27.70
2022-12-04T18:09:28.462Z,27.77
2022-12-04T18:11:58.496Z,27.47
2022-12-04T18:14:29.792Z,30.37
2022-12-04T18:16:59.070Z,28.30
2022-12-04T18:19:31.021Z,30.20
2022-12-04T18:22:00.349Z,29.90
2022-12-04T18:24:29.175Z,27.77
2022-12-04T18:26:58.029Z,30.93
2022-12-04T18:29:28.306Z,27.47
2022-12-04T18:31:57.932Z,29.07
2022-12-04T18:34:26.552Z,28.67
2022-12-04T18:36:54.897Z,29.63
2022-12-04T18:39:26.089Z,27.87
2022-12-04T18:41:56.057Z,28.70
2022-12-04T18:44:26.268Z,29.83
2022-12-04T18:46:57.626Z,30.57
2022-12-04T18:49:26.018Z,26.83
2022-12-04T18:51:54.902Z,28.17
2022-12-04T18:54:25.063Z,31.37
2022-12-04T18:56:53.712Z,28.47
2022-12-04T18:59:24.251Z,30.23
2022-12-04T19:01:54.204Z,30.03
2022-12-04T19:04:25.748Z,31.17
2022-12-04T19:06:55.893Z,29.60
2022-12-04T19:12:16.220Z,28.97
2022-12-04T19:14:45.506Z,31.07
2022-12-04T19:17:14.401Z,30.17
2022-12-04T19:19:44.152Z,32.60
2022-12-04T19:22:13.550Z,28.40
2022-12-04T19:24:42.895Z,29.43
2022-12-04T19:27:12.091Z,29.67
2022-12-04T19:29:41.817Z,29.03
2022-12-04T19:32:12.009Z,29.77
2022-12-04T19:34:40.381Z,29.60
2022-12-04T19:37:11.293Z,29.97
2022-12-04T19:39:39.883Z,28.97
2022-12-04T19:42:08.550Z,28.63
2022-12-04T19:44:48.518Z,34.43
2022-12-04T19:47:19.588Z,31.90
2022-12-04T19:49:48.643Z,30.57
2022-12-04T19:52:18.716Z,31.93
2022-12-04T19:54:47.531Z,31.53
2022-12-04T19:57:16.001Z,30.23
2022-12-04T19:59:46.775Z,30.73
2022-12-04T20:02:16.485Z,27.47
2022-12-04T20:04:44.971Z,28.83
2022-12-04T20:07:13.367Z,26.87
2022-12-04T20:09:47.368Z,26.97
2022-12-04T20:12:19.344Z,27.40
2022-12-04T20:14:47.718Z,27.23
2022-12-04T20:17:16.490Z,26.73
2022-12-04T20:19:44.870Z,25.23
2022-12-04T20:22:13.309Z,25.07
2022-12-04T20:24:43.118Z,25.60
2022-12-04T20:27:11.463Z,25.93
2022-12-04T20:29:39.871Z,27.03
2022-12-04T20:32:08.319Z,25.03
2022-12-04T20:34:43.313Z,25.13
2022-12-04T20:37:12.166Z,27.17
2022-12-04T20:39:41.358Z,26.20
2022-12-04T20:42:11.377Z,25.00
2022-12-04T20:44:39.769Z,25.93
2022-12-04T20:47:08.152Z,27.37
2022-12-04T20:49:36.514Z,25.80
2022-12-04T20:52:05.379Z,25.33
2022-12-04T20:54:40.776Z,25.87
2022-12-04T20:57:11.725Z,23.77
2022-12-04T20:59:40.330Z,26.17
2022-12-04T21:02:08.744Z,27.13
2022-12-04T21:04:38.905Z,25.27
2022-12-04T21:07:08.030Z,23.77
2022-12-04T21:09:36.498Z,24.20
2022-12-04T21:12:26.709Z,22.20
2022-12-04T21:15:19.964Z,21.37
2022-12-04T21:17:48.330Z,21.13
2022-12-04T21:20:17.381Z,20.53
2022-12-04T21:22:46.635Z,21.10
2022-12-04T21:25:14.959Z,21.43
2022-12-04T21:27:43.898Z,21.00
2022-12-04T21:30:14.907Z,19.77
2022-12-04T21:32:43.574Z,19.57
2022-12-04T21:35:11.897Z,18.13
2022-12-04T21:37:40.844Z,17.63
2022-12-04T21:40:10.819Z,19.23
2022-12-04T21:42:39.377Z,18.80
2022-12-04T21:45:08.888Z,19.87
2022-12-04T21:47:39.014Z,17.40
2022-12-04T21:50:08.875Z,18.10
2022-12-04T21:52:37.222Z,17.40
2022-12-04T21:55:06.368Z,19.33
2022-12-04T21:57:34.889Z,17.60
2022-12-04T22:00:04.076Z,17.87
2022-12-04T22:02:34.940Z,16.83
2022-12-04T22:05:06.017Z,16.73
2022-12-04T22:07:34.664Z,16.93
2022-12-04T22:10:10.196Z,18.17
2022-12-04T22:12:49.433Z,16.10
2022-12-04T22:15:18.901Z,16.43
2022-12-04T22:17:47.788Z,18.00
2022-12-04T22:20:17.997Z,16.80
2022-12-04T22:22:46.958Z,18.57
2022-12-04T22:25:15.503Z,16.53
2022-12-04T22:27:43.978Z,16.90
2022-12-04T22:30:13.748Z,16.00
2022-12-04T22:32:42.202Z,17.33
2022-12-04T22:35:11.430Z,15.57
2022-12-04T22:37:44.584Z,16.70
2022-12-04T22:40:15.677Z,17.63
2022-12-04T22:42:44.513Z,18.10
2022-12-04T22:45:14.139Z,16.70
2022-12-04T22:47:42.678Z,16.47
2022-12-04T22:50:12.472Z,16.43
2022-12-04T22:52:42.157Z,16.03
2022-12-04T22:55:11.301Z,15.80
2022-12-04T22:57:40.210Z,16.37
2022-12-04T23:00:10.289Z,16.03
2022-12-04T23:02:39.527Z,16.77
2022-12-04T23:05:08.397Z,17.57
2022-12-04T23:07:37.932Z,16.70
2022-12-04T23:10:09.355Z,16.90
2022-12-04T23:12:38.206Z,17.77
2022-12-04T23:15:08.037Z,16.83
2022-12-04T23:17:36.561Z,17.40
2022-12-04T23:20:05.708Z,17.00
2022-12-04T23:22:34.128Z,16.40
2022-12-04T23:25:03.661Z,17.03
2022-12-04T23:27:33.702Z,16.47
2022-12-04T23:30:02.583Z,16.60
2022-12-04T23:32:31.352Z,19.10
2022-12-04T23:34:59.892Z,21.67
2022-12-04T23:37:28.247Z,16.67
2022-12-04T23:39:56.951Z,18.57
2022-12-04T23:42:25.531Z,16.17
2022-12-04T23:44:55.286Z,16.33
2022-12-04T23:47:24.120Z,16.40
2022-12-04T23:49:52.446Z,17.50
2022-12-04T23:52:21.319Z,17.00
2022-12-04T23:54:49.657Z,15.73
2022-12-04T23:57:18.539Z,16.93
2022-12-04T23:59:47.482Z,16.70
